UUBW 230430Z 09003MPS CAVOK 19/15 Q1014 R30/010060 NOSIG RMK QFE750
QNH:(hPa/inHg/mmHg)1014 / 29.94 / 761
QFE:(hPa/inHg/mmHg)965 / 28.49 / 724
Temperature19
Dew Point15
Visibility> 10000
WeatherCAVOK
Cloud Cover
Transition Altitude10000 ft.
Transition LevelFL110
SQUAWK